sensor_id;sensor_type;location;lat;lon;timestamp;temperature;humidity
10411;DHT22;5251;52.112;8.606;2023-04-24T00:02:13;14.00;96.00
10411;DHT22;5251;52.112;8.606;2023-04-24T00:04:39;14.00;95.40
10411;DHT22;5251;52.112;8.606;2023-04-24T00:07:06;14.00;95.20
10411;DHT22;5251;52.112;8.606;2023-04-24T00:09:32;14.00;94.80
10411;DHT22;5251;52.112;8.606;2023-04-24T00:11:58;13.90;94.60
10411;DHT22;5251;52.112;8.606;2023-04-24T00:14:24;13.90;94.30
10411;DHT22;5251;52.112;8.606;2023-04-24T00:16:49;13.80;94.40
10411;DHT22;5251;52.112;8.606;2023-04-24T00:19:15;13.80;94.30
10411;DHT22;5251;52.112;8.606;2023-04-24T00:21:41;13.80;94.30
10411;DHT22;5251;52.112;8.606;2023-04-24T00:24:07;13.80;94.30
10411;DHT22;5251;52.112;8.606;2023-04-24T00:26:34;13.70;94.20
10411;DHT22;5251;52.112;8.606;2023-04-24T00:29:00;13.70;94.20
10411;DHT22;5251;52.112;8.606;2023-04-24T00:31:25;13.80;94.60
10411;DHT22;5251;52.112;8.606;2023-04-24T00:33:51;13.80;94.50
10411;DHT22;5251;52.112;8.606;2023-04-24T00:36:17;13.80;94.40
10411;DHT22;5251;52.112;8.606;2023-04-24T00:38:44;13.80;94.40
10411;DHT22;5251;52.112;8.606;2023-04-24T00:41:11;13.80;94.30
10411;DHT22;5251;52.112;8.606;2023-04-24T00:43:36;13.80;94.20
10411;DHT22;5251;52.112;8.606;2023-04-24T00:46:02;13.80;94.10
10411;DHT22;5251;52.112;8.606;2023-04-24T00:48:28;13.80;94.20
10411;DHT22;5251;52.112;8.606;2023-04-24T00:50:53;13.90;94.00
10411;DHT22;5251;52.112;8.606;2023-04-24T00:53:19;13.80;93.90
10411;DHT22;5251;52.112;8.606;2023-04-24T00:55:45;13.80;94.00
10411;DHT22;5251;52.112;8.606;2023-04-24T00:58:12;13.80;94.00
10411;DHT22;5251;52.112;8.606;2023-04-24T01:00:38;13.80;93.80
10411;DHT22;5251;52.112;8.606;2023-04-24T01:03:05;13.80;93.70
10411;DHT22;5251;52.112;8.606;2023-04-24T01:05:31;13.70;93.50
10411;DHT22;5251;52.112;8.606;2023-04-24T01:07:58;13.70;93.50
10411;DHT22;5251;52.112;8.606;2023-04-24T01:10:25;13.60;93.40
10411;DHT22;5251;52.112;8.606;2023-04-24T01:12:53;13.50;93.50
10411;DHT22;5251;52.112;8.606;2023-04-24T01:15:18;13.50;93.70
10411;DHT22;5251;52.112;8.606;2023-04-24T01:17:44;13.50;93.50
10411;DHT22;5251;52.112;8.606;2023-04-24T01:20:10;13.40;93.50
10411;DHT22;5251;52.112;8.606;2023-04-24T01:22:36;13.50;93.70
10411;DHT22;5251;52.112;8.606;2023-04-24T01:25:02;13.40;93.80
10411;DHT22;5251;52.112;8.606;2023-04-24T01:27:28;13.50;93.70
10411;DHT22;5251;52.112;8.606;2023-04-24T01:29:54;13.50;94.00
10411;DHT22;5251;52.112;8.606;2023-04-24T01:32:20;13.60;94.00
10411;DHT22;5251;52.112;8.606;2023-04-24T01:34:46;13.60;94.00
10411;DHT22;5251;52.112;8.606;2023-04-24T01:37:13;13.60;93.90
10411;DHT22;5251;52.112;8.606;2023-04-24T01:39:38;13.60;93.80
10411;DHT22;5251;52.112;8.606;2023-04-24T01:42:05;13.60;93.80
10411;DHT22;5251;52.112;8.606;2023-04-24T01:44:31;13.60;93.90
10411;DHT22;5251;52.112;8.606;2023-04-24T01:46:56;13.50;93.90
10411;DHT22;5251;52.112;8.606;2023-04-24T01:49:22;13.60;94.00
10411;DHT22;5251;52.112;8.606;2023-04-24T01:51:48;13.60;94.00
10411;DHT22;5251;52.112;8.606;2023-04-24T01:54:13;13.50;94.20
10411;DHT22;5251;52.112;8.606;2023-04-24T01:56:43;13.50;94.20
10411;DHT22;5251;52.112;8.606;2023-04-24T01:59:10;13.50;94.20
10411;DHT22;5251;52.112;8.606;2023-04-24T02:01:36;13.50;94.10
10411;DHT22;5251;52.112;8.606;2023-04-24T02:04:02;13.50;94.10
10411;DHT22;5251;52.112;8.606;2023-04-24T02:06:28;13.50;94.20
10411;DHT22;5251;52.112;8.606;2023-04-24T02:08:54;13.50;94.30
10411;DHT22;5251;52.112;8.606;2023-04-24T02:11:19;13.40;94.30
10411;DHT22;5251;52.112;8.606;2023-04-24T02:13:45;13.30;94.40
10411;DHT22;5251;52.112;8.606;2023-04-24T02:16:10;13.30;94.60
10411;DHT22;5251;52.112;8.606;2023-04-24T02:18:36;13.20;94.50
10411;DHT22;5251;52.112;8.606;2023-04-24T02:21:02;13.20;94.50
10411;DHT22;5251;52.112;8.606;2023-04-24T02:23:27;13.10;94.20
10411;DHT22;5251;52.112;8.606;2023-04-24T02:25:53;13.10;94.30
10411;DHT22;5251;52.112;8.606;2023-04-24T02:28:19;13.10;94.40
10411;DHT22;5251;52.112;8.606;2023-04-24T02:30:45;13.00;94.40
10411;DHT22;5251;52.112;8.606;2023-04-24T02:33:11;13.00;94.40
10411;DHT22;5251;52.112;8.606;2023-04-24T02:35:36;12.90;94.40
10411;DHT22;5251;52.112;8.606;2023-04-24T02:38:02;12.90;94.40
10411;DHT22;5251;52.112;8.606;2023-04-24T02:40:28;12.80;94.30
10411;DHT22;5251;52.112;8.606;2023-04-24T02:42:54;12.80;94.30
10411;DHT22;5251;52.112;8.606;2023-04-24T02:45:20;12.70;94.30
10411;DHT22;5251;52.112;8.606;2023-04-24T02:47:45;12.70;94.30
10411;DHT22;5251;52.112;8.606;2023-04-24T02:50:11;12.70;94.50
10411;DHT22;5251;52.112;8.606;2023-04-24T02:52:36;12.60;94.50
10411;DHT22;5251;52.112;8.606;2023-04-24T02:55:02;12.60;94.60
10411;DHT22;5251;52.112;8.606;2023-04-24T02:57:28;12.50;94.60
10411;DHT22;5251;52.112;8.606;2023-04-24T02:59:53;12.50;94.70
10411;DHT22;5251;52.112;8.606;2023-04-24T03:02:19;12.50;94.80
10411;DHT22;5251;52.112;8.606;2023-04-24T03:04:46;12.40;94.80
10411;DHT22;5251;52.112;8.606;2023-04-24T03:07:13;12.40;95.10
10411;DHT22;5251;52.112;8.606;2023-04-24T03:09:40;12.40;94.70
10411;DHT22;5251;52.112;8.606;2023-04-24T03:12:05;12.30;94.50
10411;DHT22;5251;52.112;8.606;2023-04-24T03:14:31;12.30;94.40
10411;DHT22;5251;52.112;8.606;2023-04-24T03:16:57;12.30;94.50
10411;DHT22;5251;52.112;8.606;2023-04-24T03:19:22;12.20;94.50
10411;DHT22;5251;52.112;8.606;2023-04-24T03:21:49;12.20;94.60
10411;DHT22;5251;52.112;8.606;2023-04-24T03:24:14;12.20;94.70
10411;DHT22;5251;52.112;8.606;2023-04-24T03:26:40;12.20;95.00
10411;DHT22;5251;52.112;8.606;2023-04-24T03:29:06;12.30;95.20
10411;DHT22;5251;52.112;8.606;2023-04-24T03:31:31;12.30;95.30
10411;DHT22;5251;52.112;8.606;2023-04-24T03:33:57;12.40;95.40
10411;DHT22;5251;52.112;8.606;2023-04-24T03:36:22;12.40;95.40
10411;DHT22;5251;52.112;8.606;2023-04-24T03:38:48;12.50;95.20
10411;DHT22;5251;52.112;8.606;2023-04-24T03:41:13;12.50;95.20
10411;DHT22;5251;52.112;8.606;2023-04-24T03:43:39;12.60;95.30
10411;DHT22;5251;52.112;8.606;2023-04-24T03:46:05;12.70;95.20
10411;DHT22;5251;52.112;8.606;2023-04-24T03:48:30;12.80;95.00
10411;DHT22;5251;52.112;8.606;2023-04-24T03:50:56;12.80;94.80
10411;DHT22;5251;52.112;8.606;2023-04-24T03:53:21;12.80;94.70
10411;DHT22;5251;52.112;8.606;2023-04-24T03:55:47;12.90;94.70
10411;DHT22;5251;52.112;8.606;2023-04-24T03:58:13;13.00;94.60
10411;DHT22;5251;52.112;8.606;2023-04-24T04:00:43;13.00;94.40
10411;DHT22;5251;52.112;8.606;2023-04-24T04:03:09;13.00;94.40
10411;DHT22;5251;52.112;8.606;2023-04-24T04:05:35;13.10;94.30
10411;DHT22;5251;52.112;8.606;2023-04-24T04:08:00;13.10;94.00
10411;DHT22;5251;52.112;8.606;2023-04-24T04:10:26;13.10;93.90
10411;DHT22;5251;52.112;8.606;2023-04-24T04:12:52;13.10;93.80
10411;DHT22;5251;52.112;8.606;2023-04-24T04:15:17;13.10;93.60
10411;DHT22;5251;52.112;8.606;2023-04-24T04:17:43;13.00;93.60
10411;DHT22;5251;52.112;8.606;2023-04-24T04:20:08;13.00;93.60
10411;DHT22;5251;52.112;8.606;2023-04-24T04:22:36;12.90;93.50
10411;DHT22;5251;52.112;8.606;2023-04-24T04:25:02;12.90;93.60
10411;DHT22;5251;52.112;8.606;2023-04-24T04:27:28;12.90;93.70
10411;DHT22;5251;52.112;8.606;2023-04-24T04:30:00;12.80;93.90
10411;DHT22;5251;52.112;8.606;2023-04-24T04:32:34;12.80;94.10
10411;DHT22;5251;52.112;8.606;2023-04-24T04:35:00;12.80;94.10
10411;DHT22;5251;52.112;8.606;2023-04-24T04:37:32;12.80;94.20
10411;DHT22;5251;52.112;8.606;2023-04-24T04:40:02;12.80;94.30
10411;DHT22;5251;52.112;8.606;2023-04-24T04:42:32;12.80;94.30
10411;DHT22;5251;52.112;8.606;2023-04-24T04:44:59;12.80;94.30
10411;DHT22;5251;52.112;8.606;2023-04-24T04:47:25;12.90;94.40
10411;DHT22;5251;52.112;8.606;2023-04-24T04:49:51;12.90;94.20
10411;DHT22;5251;52.112;8.606;2023-04-24T04:52:18;12.90;94.00
10411;DHT22;5251;52.112;8.606;2023-04-24T04:54:43;13.00;94.00
10411;DHT22;5251;52.112;8.606;2023-04-24T04:57:10;13.00;94.00
10411;DHT22;5251;52.112;8.606;2023-04-24T04:59:35;13.10;93.90
10411;DHT22;5251;52.112;8.606;2023-04-24T05:02:02;13.10;93.60
10411;DHT22;5251;52.112;8.606;2023-04-24T05:04:28;13.10;93.50
10411;DHT22;5251;52.112;8.606;2023-04-24T05:06:53;13.10;93.40
10411;DHT22;5251;52.112;8.606;2023-04-24T05:09:19;13.20;93.40
10411;DHT22;5251;52.112;8.606;2023-04-24T05:11:44;13.20;93.10
10411;DHT22;5251;52.112;8.606;2023-04-24T05:14:10;13.20;93.10
10411;DHT22;5251;52.112;8.606;2023-04-24T05:16:38;13.20;93.10
10411;DHT22;5251;52.112;8.606;2023-04-24T05:19:03;13.20;93.10
10411;DHT22;5251;52.112;8.606;2023-04-24T05:21:29;13.10;93.00
10411;DHT22;5251;52.112;8.606;2023-04-24T05:23:54;13.10;92.90
10411;DHT22;5251;52.112;8.606;2023-04-24T05:26:20;13.10;93.00
10411;DHT22;5251;52.112;8.606;2023-04-24T05:28:46;13.10;93.00
10411;DHT22;5251;52.112;8.606;2023-04-24T05:31:11;13.20;92.90
10411;DHT22;5251;52.112;8.606;2023-04-24T05:33:37;13.20;93.00
10411;DHT22;5251;52.112;8.606;2023-04-24T05:36:03;13.20;93.00
10411;DHT22;5251;52.112;8.606;2023-04-24T05:38:30;13.10;93.00
10411;DHT22;5251;52.112;8.606;2023-04-24T05:40:56;13.20;93.00
10411;DHT22;5251;52.112;8.606;2023-04-24T05:43:21;13.20;93.00
10411;DHT22;5251;52.112;8.606;2023-04-24T05:45:47;13.20;93.00
10411;DHT22;5251;52.112;8.606;2023-04-24T05:48:13;13.30;93.10
10411;DHT22;5251;52.112;8.606;2023-04-24T05:50:38;13.30;93.10
10411;DHT22;5251;52.112;8.606;2023-04-24T05:53:04;13.30;93.30
10411;DHT22;5251;52.112;8.606;2023-04-24T05:55:31;13.30;93.20
10411;DHT22;5251;52.112;8.606;2023-04-24T05:57:56;13.40;93.30
10411;DHT22;5251;52.112;8.606;2023-04-24T06:00:22;13.40;93.20
10411;DHT22;5251;52.112;8.606;2023-04-24T06:02:47;13.40;93.20
10411;DHT22;5251;52.112;8.606;2023-04-24T06:05:13;13.50;93.10
10411;DHT22;5251;52.112;8.606;2023-04-24T06:07:40;13.50;93.10
10411;DHT22;5251;52.112;8.606;2023-04-24T06:10:06;13.50;93.10
10411;DHT22;5251;52.112;8.606;2023-04-24T06:12:31;13.50;93.20
10411;DHT22;5251;52.112;8.606;2023-04-24T06:14:57;13.60;93.20
10411;DHT22;5251;52.112;8.606;2023-04-24T06:17:22;13.60;93.40
10411;DHT22;5251;52.112;8.606;2023-04-24T06:19:48;13.70;93.30
10411;DHT22;5251;52.112;8.606;2023-04-24T06:22:13;13.70;93.20
10411;DHT22;5251;52.112;8.606;2023-04-24T06:24:40;13.80;93.10
10411;DHT22;5251;52.112;8.606;2023-04-24T06:27:06;13.80;93.10
10411;DHT22;5251;52.112;8.606;2023-04-24T06:29:32;13.90;93.00
10411;DHT22;5251;52.112;8.606;2023-04-24T06:31:58;13.90;92.80
10411;DHT22;5251;52.112;8.606;2023-04-24T06:34:24;13.90;92.50
10411;DHT22;5251;52.112;8.606;2023-04-24T06:36:49;14.00;92.50
10411;DHT22;5251;52.112;8.606;2023-04-24T06:39:15;14.00;92.70
10411;DHT22;5251;52.112;8.606;2023-04-24T06:41:41;14.00;92.60
10411;DHT22;5251;52.112;8.606;2023-04-24T06:44:06;14.10;92.40
10411;DHT22;5251;52.112;8.606;2023-04-24T06:46:32;14.10;92.10
10411;DHT22;5251;52.112;8.606;2023-04-24T06:48:57;14.10;92.00
10411;DHT22;5251;52.112;8.606;2023-04-24T06:51:24;14.10;91.90
10411;DHT22;5251;52.112;8.606;2023-04-24T06:53:51;14.10;92.00
10411;DHT22;5251;52.112;8.606;2023-04-24T06:56:16;14.10;92.00
10411;DHT22;5251;52.112;8.606;2023-04-24T06:58:42;14.10;91.90
10411;DHT22;5251;52.112;8.606;2023-04-24T07:01:08;14.10;91.80
10411;DHT22;5251;52.112;8.606;2023-04-24T07:03:33;14.10;91.80
10411;DHT22;5251;52.112;8.606;2023-04-24T07:05:59;14.10;91.90
10411;DHT22;5251;52.112;8.606;2023-04-24T07:08:24;14.20;91.70
10411;DHT22;5251;52.112;8.606;2023-04-24T07:10:50;14.10;91.50
10411;DHT22;5251;52.112;8.606;2023-04-24T07:13:16;14.10;91.90
10411;DHT22;5251;52.112;8.606;2023-04-24T07:15:42;14.10;91.50
10411;DHT22;5251;52.112;8.606;2023-04-24T07:18:08;14.10;91.50
10411;DHT22;5251;52.112;8.606;2023-04-24T07:20:34;14.10;91.50
10411;DHT22;5251;52.112;8.606;2023-04-24T07:23:00;14.10;91.90
10411;DHT22;5251;52.112;8.606;2023-04-24T07:25:25;14.10;91.50
10411;DHT22;5251;52.112;8.606;2023-04-24T07:27:51;14.10;91.50
10411;DHT22;5251;52.112;8.606;2023-04-24T07:30:17;14.00;91.60
10411;DHT22;5251;52.112;8.606;2023-04-24T07:32:43;14.00;91.30
10411;DHT22;5251;52.112;8.606;2023-04-24T07:35:08;14.10;91.30
10411;DHT22;5251;52.112;8.606;2023-04-24T07:37:35;14.00;91.50
10411;DHT22;5251;52.112;8.606;2023-04-24T07:40:00;14.00;91.30
10411;DHT22;5251;52.112;8.606;2023-04-24T07:42:26;14.00;91.40
10411;DHT22;5251;52.112;8.606;2023-04-24T07:44:53;14.00;91.50
10411;DHT22;5251;52.112;8.606;2023-04-24T07:47:18;14.00;91.30
10411;DHT22;5251;52.112;8.606;2023-04-24T07:49:44;14.10;91.50
10411;DHT22;5251;52.112;8.606;2023-04-24T07:52:09;14.10;91.30
10411;DHT22;5251;52.112;8.606;2023-04-24T07:54:35;14.20;91.10
10411;DHT22;5251;52.112;8.606;2023-04-24T07:57:03;14.20;91.40
10411;DHT22;5251;52.112;8.606;2023-04-24T07:59:28;14.30;91.00
10411;DHT22;5251;52.112;8.606;2023-04-24T08:01:54;14.40;90.90
10411;DHT22;5251;52.112;8.606;2023-04-24T08:04:20;14.40;90.80
10411;DHT22;5251;52.112;8.606;2023-04-24T08:06:47;14.50;90.60
10411;DHT22;5251;52.112;8.606;2023-04-24T08:09:13;14.60;90.70
10411;DHT22;5251;52.112;8.606;2023-04-24T08:11:39;14.60;90.30
10411;DHT22;5251;52.112;8.606;2023-04-24T08:14:04;14.60;90.00
10411;DHT22;5251;52.112;8.606;2023-04-24T08:16:31;14.60;90.10
10411;DHT22;5251;52.112;8.606;2023-04-24T08:18:57;14.60;90.20
10411;DHT22;5251;52.112;8.606;2023-04-24T08:21:23;14.60;90.40
10411;DHT22;5251;52.112;8.606;2023-04-24T08:23:48;14.60;89.70
10411;DHT22;5251;52.112;8.606;2023-04-24T08:26:14;14.70;90.10
10411;DHT22;5251;52.112;8.606;2023-04-24T08:28:40;14.70;90.10
10411;DHT22;5251;52.112;8.606;2023-04-24T08:31:05;14.70;90.10
10411;DHT22;5251;52.112;8.606;2023-04-24T08:33:31;14.70;90.10
10411;DHT22;5251;52.112;8.606;2023-04-24T08:36:03;14.70;90.10
10411;DHT22;5251;52.112;8.606;2023-04-24T08:38:29;14.70;90.60
10411;DHT22;5251;52.112;8.606;2023-04-24T08:40:57;14.80;90.40
10411;DHT22;5251;52.112;8.606;2023-04-24T08:43:23;14.80;90.20
10411;DHT22;5251;52.112;8.606;2023-04-24T08:45:50;14.80;90.10
10411;DHT22;5251;52.112;8.606;2023-04-24T08:48:16;14.70;89.90
10411;DHT22;5251;52.112;8.606;2023-04-24T08:50:42;14.70;90.00
10411;DHT22;5251;52.112;8.606;2023-04-24T08:53:10;14.70;90.00
10411;DHT22;5251;52.112;8.606;2023-04-24T08:55:37;14.70;90.40
10411;DHT22;5251;52.112;8.606;2023-04-24T08:58:03;14.90;91.00
10411;DHT22;5251;52.112;8.606;2023-04-24T09:00:29;15.00;91.30
10411;DHT22;5251;52.112;8.606;2023-04-24T09:02:56;15.20;90.80
10411;DHT22;5251;52.112;8.606;2023-04-24T09:05:22;15.30;90.60
10411;DHT22;5251;52.112;8.606;2023-04-24T09:07:56;15.50;89.60
10411;DHT22;5251;52.112;8.606;2023-04-24T09:10:23;15.70;89.60
10411;DHT22;5251;52.112;8.606;2023-04-24T09:12:51;15.80;87.60
10411;DHT22;5251;52.112;8.606;2023-04-24T09:15:18;16.00;87.40
10411;DHT22;5251;52.112;8.606;2023-04-24T09:17:43;16.00;86.10
10411;DHT22;5251;52.112;8.606;2023-04-24T09:20:09;16.00;86.10
10411;DHT22;5251;52.112;8.606;2023-04-24T09:22:36;16.00;85.00
10411;DHT22;5251;52.112;8.606;2023-04-24T09:25:03;15.90;84.80
10411;DHT22;5251;52.112;8.606;2023-04-24T09:27:31;15.90;85.30
10411;DHT22;5251;52.112;8.606;2023-04-24T09:29:57;15.80;85.00
10411;DHT22;5251;52.112;8.606;2023-04-24T09:32:23;15.70;85.00
10411;DHT22;5251;52.112;8.606;2023-04-24T09:35:13;15.70;85.40
10411;DHT22;5251;52.112;8.606;2023-04-24T09:37:42;15.60;85.60
10411;DHT22;5251;52.112;8.606;2023-04-24T09:40:16;15.50;86.30
10411;DHT22;5251;52.112;8.606;2023-04-24T09:42:53;15.50;86.10
10411;DHT22;5251;52.112;8.606;2023-04-24T09:45:19;15.50;86.10
10411;DHT22;5251;52.112;8.606;2023-04-24T09:47:45;15.40;85.90
10411;DHT22;5251;52.112;8.606;2023-04-24T09:50:15;15.40;85.70
10411;DHT22;5251;52.112;8.606;2023-04-24T09:52:46;15.30;85.50
10411;DHT22;5251;52.112;8.606;2023-04-24T09:55:18;15.30;86.60
10411;DHT22;5251;52.112;8.606;2023-04-24T09:57:51;15.20;85.80
10411;DHT22;5251;52.112;8.606;2023-04-24T10:00:25;15.20;86.10
10411;DHT22;5251;52.112;8.606;2023-04-24T10:02:59;15.10;86.50
10411;DHT22;5251;52.112;8.606;2023-04-24T10:05:31;15.10;86.70
10411;DHT22;5251;52.112;8.606;2023-04-24T10:08:18;15.10;87.10
10411;DHT22;5251;52.112;8.606;2023-04-24T10:10:46;15.10;86.70
10411;DHT22;5251;52.112;8.606;2023-04-24T10:13:13;15.10;87.60
10411;DHT22;5251;52.112;8.606;2023-04-24T10:15:41;15.10;88.00
10411;DHT22;5251;52.112;8.606;2023-04-24T10:18:08;15.10;87.80
10411;DHT22;5251;52.112;8.606;2023-04-24T10:20:36;15.20;87.30
10411;DHT22;5251;52.112;8.606;2023-04-24T10:23:03;15.20;88.30
10411;DHT22;5251;52.112;8.606;2023-04-24T10:25:31;15.20;87.90
10411;DHT22;5251;52.112;8.606;2023-04-24T10:27:59;15.20;88.50
10411;DHT22;5251;52.112;8.606;2023-04-24T10:30:27;15.20;87.80
10411;DHT22;5251;52.112;8.606;2023-04-24T10:32:53;15.20;87.90
10411;DHT22;5251;52.112;8.606;2023-04-24T10:35:19;15.20;87.70
10411;DHT22;5251;52.112;8.606;2023-04-24T10:37:56;15.20;87.30
10411;DHT22;5251;52.112;8.606;2023-04-24T10:40:42;15.10;87.40
10411;DHT22;5251;52.112;8.606;2023-04-24T10:43:08;15.10;87.70
10411;DHT22;5251;52.112;8.606;2023-04-24T10:45:38;15.10;87.10
10411;DHT22;5251;52.112;8.606;2023-04-24T10:48:08;15.10;86.70
10411;DHT22;5251;52.112;8.606;2023-04-24T10:50:53;15.00;87.20
10411;DHT22;5251;52.112;8.606;2023-04-24T10:53:20;15.00;89.70
10411;DHT22;5251;52.112;8.606;2023-04-24T10:55:50;14.90;90.20
10411;DHT22;5251;52.112;8.606;2023-04-24T10:58:21;14.80;90.40
10411;DHT22;5251;52.112;8.606;2023-04-24T11:00:59;14.80;90.90
10411;DHT22;5251;52.112;8.606;2023-04-24T11:03:30;14.70;90.90
10411;DHT22;5251;52.112;8.606;2023-04-24T11:05:58;14.70;91.10
10411;DHT22;5251;52.112;8.606;2023-04-24T11:08:27;14.70;91.20
10411;DHT22;5251;52.112;8.606;2023-04-24T11:10:59;14.70;91.60
10411;DHT22;5251;52.112;8.606;2023-04-24T11:13:26;14.70;91.30
10411;DHT22;5251;52.112;8.606;2023-04-24T11:19:07;14.80;91.30
10411;DHT22;5251;52.112;8.606;2023-04-24T11:21:43;14.80;91.20
10411;DHT22;5251;52.112;8.606;2023-04-24T11:32:37;14.90;92.00
10411;DHT22;5251;52.112;8.606;2023-04-24T11:35:29;15.00;92.10
10411;DHT22;5251;52.112;8.606;2023-04-24T11:37:56;15.10;91.90
10411;DHT22;5251;52.112;8.606;2023-04-24T11:40:22;15.20;91.50
10411;DHT22;5251;52.112;8.606;2023-04-24T11:42:49;15.20;91.40
10411;DHT22;5251;52.112;8.606;2023-04-24T11:45:23;15.20;91.20
10411;DHT22;5251;52.112;8.606;2023-04-24T11:47:49;15.20;90.90
10411;DHT22;5251;52.112;8.606;2023-04-24T11:50:17;15.30;90.70
10411;DHT22;5251;52.112;8.606;2023-04-24T11:52:45;15.20;90.60
10411;DHT22;5251;52.112;8.606;2023-04-24T11:57:42;15.10;91.00
10411;DHT22;5251;52.112;8.606;2023-04-24T12:00:15;15.00;90.90
10411;DHT22;5251;52.112;8.606;2023-04-24T12:02:42;14.90;91.30
10411;DHT22;5251;52.112;8.606;2023-04-24T12:05:08;14.90;91.40
10411;DHT22;5251;52.112;8.606;2023-04-24T12:07:41;14.90;91.30
10411;DHT22;5251;52.112;8.606;2023-04-24T12:10:10;15.00;91.90
10411;DHT22;5251;52.112;8.606;2023-04-24T12:12:36;15.00;91.70
10411;DHT22;5251;52.112;8.606;2023-04-24T12:15:07;15.00;91.70
10411;DHT22;5251;52.112;8.606;2023-04-24T12:17:34;14.90;91.70
10411;DHT22;5251;52.112;8.606;2023-04-24T12:20:06;14.90;92.00
10411;DHT22;5251;52.112;8.606;2023-04-24T12:22:46;14.90;92.10
10411;DHT22;5251;52.112;8.606;2023-04-24T12:25:13;14.90;92.00
10411;DHT22;5251;52.112;8.606;2023-04-24T12:27:39;14.80;92.40
10411;DHT22;5251;52.112;8.606;2023-04-24T12:30:05;14.60;92.00
10411;DHT22;5251;52.112;8.606;2023-04-24T12:32:35;14.60;92.40
10411;DHT22;5251;52.112;8.606;2023-04-24T12:35:00;14.50;92.60
10411;DHT22;5251;52.112;8.606;2023-04-24T12:37:31;14.40;92.70
10411;DHT22;5251;52.112;8.606;2023-04-24T12:40:07;14.30;92.90
10411;DHT22;5251;52.112;8.606;2023-04-24T12:42:33;14.20;93.40
10411;DHT22;5251;52.112;8.606;2023-04-24T12:45:02;14.20;93.50
10411;DHT22;5251;52.112;8.606;2023-04-24T12:47:28;14.10;93.30
10411;DHT22;5251;52.112;8.606;2023-04-24T12:49:54;14.10;93.30
10411;DHT22;5251;52.112;8.606;2023-04-24T12:52:22;14.00;93.50
10411;DHT22;5251;52.112;8.606;2023-04-24T12:54:49;14.00;93.60
10411;DHT22;5251;52.112;8.606;2023-04-24T12:57:14;14.10;93.80
10411;DHT22;5251;52.112;8.606;2023-04-24T12:59:40;14.10;94.10
10411;DHT22;5251;52.112;8.606;2023-04-24T13:02:06;14.10;94.20
10411;DHT22;5251;52.112;8.606;2023-04-24T13:04:32;14.10;94.10
10411;DHT22;5251;52.112;8.606;2023-04-24T13:06:58;14.10;94.10
10411;DHT22;5251;52.112;8.606;2023-04-24T13:09:23;14.20;94.30
10411;DHT22;5251;52.112;8.606;2023-04-24T13:11:49;14.20;94.40
10411;DHT22;5251;52.112;8.606;2023-04-24T13:14:15;14.20;94.40
10411;DHT22;5251;52.112;8.606;2023-04-24T13:16:41;14.10;94.40
10411;DHT22;5251;52.112;8.606;2023-04-24T13:19:06;14.20;94.40
10411;DHT22;5251;52.112;8.606;2023-04-24T13:21:32;14.10;94.80
10411;DHT22;5251;52.112;8.606;2023-04-24T13:23:58;14.10;94.70
10411;DHT22;5251;52.112;8.606;2023-04-24T13:26:24;14.00;94.00
10411;DHT22;5251;52.112;8.606;2023-04-24T13:28:50;14.00;93.90
10411;DHT22;5251;52.112;8.606;2023-04-24T13:31:15;13.90;94.10
10411;DHT22;5251;52.112;8.606;2023-04-24T13:33:42;14.00;93.90
10411;DHT22;5251;52.112;8.606;2023-04-24T13:36:07;14.00;94.20
10411;DHT22;5251;52.112;8.606;2023-04-24T13:38:34;14.00;94.30
10411;DHT22;5251;52.112;8.606;2023-04-24T13:41:00;14.10;94.20
10411;DHT22;5251;52.112;8.606;2023-04-24T13:43:25;14.20;93.40
10411;DHT22;5251;52.112;8.606;2023-04-24T13:45:51;14.20;93.50
10411;DHT22;5251;52.112;8.606;2023-04-24T13:48:17;14.30;93.30
10411;DHT22;5251;52.112;8.606;2023-04-24T13:50:43;14.30;93.10
10411;DHT22;5251;52.112;8.606;2023-04-24T13:53:09;14.30;93.10
10411;DHT22;5251;52.112;8.606;2023-04-24T13:55:35;14.30;93.20
10411;DHT22;5251;52.112;8.606;2023-04-24T13:58:01;14.30;93.20
10411;DHT22;5251;52.112;8.606;2023-04-24T14:00:28;14.20;93.20
10411;DHT22;5251;52.112;8.606;2023-04-24T14:02:53;14.10;93.00
10411;DHT22;5251;52.112;8.606;2023-04-24T14:05:19;14.10;93.60
10411;DHT22;5251;52.112;8.606;2023-04-24T14:07:46;14.00;93.30
10411;DHT22;5251;52.112;8.606;2023-04-24T14:10:12;13.90;93.60
10411;DHT22;5251;52.112;8.606;2023-04-24T14:12:38;13.80;93.40
10411;DHT22;5251;52.112;8.606;2023-04-24T14:15:04;13.70;93.40
10411;DHT22;5251;52.112;8.606;2023-04-24T14:17:30;13.70;93.50
10411;DHT22;5251;52.112;8.606;2023-04-24T14:19:56;13.60;93.40
10411;DHT22;5251;52.112;8.606;2023-04-24T14:22:22;13.60;93.70
10411;DHT22;5251;52.112;8.606;2023-04-24T14:24:48;13.60;94.00
10411;DHT22;5251;52.112;8.606;2023-04-24T14:27:13;13.60;94.40
10411;DHT22;5251;52.112;8.606;2023-04-24T14:29:39;13.60;94.50
10411;DHT22;5251;52.112;8.606;2023-04-24T14:32:05;13.60;94.70
10411;DHT22;5251;52.112;8.606;2023-04-24T14:34:30;13.70;94.90
10411;DHT22;5251;52.112;8.606;2023-04-24T14:36:56;13.80;94.90
10411;DHT22;5251;52.112;8.606;2023-04-24T14:39:21;13.80;94.80
10411;DHT22;5251;52.112;8.606;2023-04-24T14:41:47;13.80;94.60
10411;DHT22;5251;52.112;8.606;2023-04-24T14:44:13;13.90;94.30
10411;DHT22;5251;52.112;8.606;2023-04-24T14:46:38;13.90;94.10
10411;DHT22;5251;52.112;8.606;2023-04-24T14:49:04;13.90;94.50
10411;DHT22;5251;52.112;8.606;2023-04-24T14:51:30;13.80;94.00
10411;DHT22;5251;52.112;8.606;2023-04-24T14:53:56;13.70;93.60
10411;DHT22;5251;52.112;8.606;2023-04-24T14:56:23;13.70;93.60
10411;DHT22;5251;52.112;8.606;2023-04-24T14:58:48;13.60;93.70
10411;DHT22;5251;52.112;8.606;2023-04-24T15:01:14;13.50;93.80
10411;DHT22;5251;52.112;8.606;2023-04-24T15:03:39;13.40;93.90
10411;DHT22;5251;52.112;8.606;2023-04-24T15:06:05;13.40;94.10
10411;DHT22;5251;52.112;8.606;2023-04-24T15:08:31;13.30;94.30
10411;DHT22;5251;52.112;8.606;2023-04-24T15:10:57;13.20;94.20
10411;DHT22;5251;52.112;8.606;2023-04-24T15:13:22;13.20;94.20
10411;DHT22;5251;52.112;8.606;2023-04-24T15:15:48;13.10;94.50
10411;DHT22;5251;52.112;8.606;2023-04-24T15:18:13;13.10;94.50
10411;DHT22;5251;52.112;8.606;2023-04-24T15:20:39;13.10;94.50
10411;DHT22;5251;52.112;8.606;2023-04-24T15:23:07;13.10;94.60
10411;DHT22;5251;52.112;8.606;2023-04-24T15:25:32;13.00;94.70
10411;DHT22;5251;52.112;8.606;2023-04-24T15:27:59;13.00;94.70
10411;DHT22;5251;52.112;8.606;2023-04-24T15:30:26;13.00;94.80
10411;DHT22;5251;52.112;8.606;2023-04-24T15:32:52;13.00;94.70
10411;DHT22;5251;52.112;8.606;2023-04-24T15:35:17;13.00;94.70
10411;DHT22;5251;52.112;8.606;2023-04-24T15:37:43;13.00;94.40
10411;DHT22;5251;52.112;8.606;2023-04-24T15:40:09;13.00;94.40
10411;DHT22;5251;52.112;8.606;2023-04-24T15:42:38;13.00;94.40
10411;DHT22;5251;52.112;8.606;2023-04-24T15:45:04;13.10;94.50
10411;DHT22;5251;52.112;8.606;2023-04-24T15:47:31;13.10;94.40
10411;DHT22;5251;52.112;8.606;2023-04-24T15:49:57;13.10;94.30
10411;DHT22;5251;52.112;8.606;2023-04-24T15:52:23;13.00;94.30
10411;DHT22;5251;52.112;8.606;2023-04-24T15:54:49;13.00;94.20
10411;DHT22;5251;52.112;8.606;2023-04-24T15:57:14;13.00;94.20